Portada
METAR-TAF:

METAR-TAF

Aeroports :

Sendai, Japó

latitud: 38-08N, longitud: 140-55E, altitud: 1 m

Observació

L'informe es va fer fa 2 hores i 13 minuts, a les 12:00 UTC
Vent 3 kt del Nord/Nord-Oest
Temperatura 7°C
Humitat 61%
Pressió 1026 hPa
Visibilitat 10 km o més
Escasses núvols a una alçada de 3000 ft
Cel ennuvolat a una alçada de 13000 ft

METAR: RJSS 241200Z 34003KT 9999 FEW030 BKN130 07/00 Q1026

Hora: 23:13 (14:13 UTC)

Pronòstic

L'informe es va fer fa 3 hores i 8 minuts, a les 11:05 UTC
Pronòstic vàlid del 24 a les 12 UTC al 25 a les 18 UTC
Vent 4 kt del Nord-Oest
Visibilitat 10 km o més
Escasses núvols a una alçada de 3000 ft
Núvols disperses a una alçada de 4000 ft
Evolucionant progressivament
l' 25 a les 00 UTC al 25 a les 03 UTC
Vent 5 kt del Sud-Est
Evolucionant progressivament
l' 25 a les 09 UTC al 25 a les 12 UTC
Vent 5 kt del Oest

TAF: RJSS 241105Z 2412/2518 32004KT 9999 FEW030 SCT040 BECMG 2500/2503 14005KT BECMG 2509/2512 27005KT

Observacions i pronòstics meteorològics de més de 4000 aeroports (METAR i TAF).

Les estacions disponibles són els punts grocs i vermells al mapa.

Posi el ratolí al punt desitjat per veure el nom de l'estació.

Feu clic per veure les observacions i els pronòstics meteorològics.

Per canviar el mapa: feu clic els botons verds amb una creu de color negre per apropar; al botó verd amb un guió per allunyar la imatge; o en les fletxes verdes per a mapes adjacents.


METAR-TAF: